Time;durP1;ratioP1;P1;durP2;ratioP2;P2;SDS_P1;SDS_P2;PMS_P1;PMS_P2;Temp;Humidity;BMP_temperature;BMP_pressure;BME280_temperature;BME280_humidity;BME280_pressure;Samples;Min_cycle;Max_cycle;Signal;HPM_P1;HPM_P2
2023/08/25 00:02:15;;;;;;;;;;;20.30;99.90;;;;;;20915912;28;19979;-73
2023/08/25 00:12:16;;;;;;;;;;;20.40;99.90;;;;;;20915112;28;19917;-73
2023/08/25 00:22:17;;;;;;;;;;;20.00;99.90;;;;;;20914470;28;20007;-73
2023/08/25 00:32:17;;;;;;;;;;;19.80;99.90;;;;;;20913689;28;19912;-72
2023/08/25 00:42:18;;;;;;;;;;;19.90;99.90;;;;;;20912173;28;20601;-72
2023/08/25 00:52:19;;;;;;;;;;;19.90;99.90;;;;;;20894221;28;19913;-72
2023/08/25 01:02:20;;;;;;;;;;;19.90;99.90;;;;;;20903941;28;20141;-73
2023/08/25 01:12:39;;;;;;;;;;;20.20;99.90;;;;;;20899778;28;19952;-73
2023/08/25 01:22:49;;;;;;;;;;;19.80;99.90;;;;;;20909248;28;20039;-74
2023/08/25 01:32:51;;;;;;;;;;;19.60;99.90;;;;;;20885727;28;19959;-73
2023/08/25 01:42:54;;;;;;;;;;;20.00;99.90;;;;;;20881671;28;20019;-73
2023/08/25 01:52:54;;;;;;;;;;;19.80;99.90;;;;;;20880530;28;19913;-73
2023/08/25 02:02:56;;;;;;;;;;;19.80;99.90;;;;;;20874936;28;20384;-74
2023/08/25 02:12:57;;;;;;;;;;;19.60;99.90;;;;;;20871910;28;19927;-74
2023/08/25 02:22:58;;;;;;;;;;;19.60;99.90;;;;;;20906232;28;19921;-74
2023/08/25 02:32:59;;;;;;;;;;;19.70;99.90;;;;;;20883429;28;19971;-75
2023/08/25 02:43:00;;;;;;;;;;;19.80;99.90;;;;;;20924649;28;19916;-74
2023/08/25 02:53:01;;;;;;;;;;;19.50;99.90;;;;;;20903377;28;19917;-74
2023/08/25 03:03:02;;;;;;;;;;;19.90;99.90;;;;;;20905789;28;20417;-74
2023/08/25 03:13:03;;;;;;;;;;;20.10;99.90;;;;;;20901851;28;19913;-73
2023/08/25 03:23:05;;;;;;;;;;;19.40;99.90;;;;;;20900602;28;19917;-73
2023/08/25 03:33:06;;;;;;;;;;;19.40;99.90;;;;;;20948530;28;19916;-73
2023/08/25 03:43:07;;;;;;;;;;;19.50;99.90;;;;;;20982993;28;19943;-73
2023/08/25 03:53:08;;;;;;;;;;;19.60;99.90;;;;;;20895669;28;20008;-74
2023/08/25 04:03:08;;;;;;;;;;;19.70;99.90;;;;;;20895453;28;20401;-73
2023/08/25 04:13:09;;;;;;;;;;;19.30;99.90;;;;;;20896102;28;19920;-74
2023/08/25 04:23:10;;;;;;;;;;;19.30;99.90;;;;;;20957400;22;19931;-78
2023/08/25 04:33:12;;;;;;;;;;;19.30;99.90;;;;;;21046984;28;19918;-78
2023/08/25 04:43:12;;;;;;;;;;;19.20;99.90;;;;;;20976926;28;19973;-79
2023/08/25 04:53:13;;;;;;;;;;;19.30;99.90;;;;;;20979794;28;20401;-79
2023/08/25 05:03:15;;;;;;;;;;;19.30;99.90;;;;;;20985775;28;20011;-78
2023/08/25 05:13:15;;;;;;;;;;;19.40;99.90;;;;;;20979811;28;19912;-78
2023/08/25 05:23:16;;;;;;;;;;;19.40;99.90;;;;;;21061709;28;19920;-78
2023/08/25 05:33:17;;;;;;;;;;;19.20;99.90;;;;;;21006407;28;19919;-78
2023/08/25 05:43:56;;;;;;;;;;;19.50;99.90;;;;;;20977908;28;20096;-78
2023/08/25 05:53:57;;;;;;;;;;;19.70;99.90;;;;;;20970510;28;19920;-77
2023/08/25 06:03:57;;;;;;;;;;;20.00;99.90;;;;;;20988437;28;20268;-77
2023/08/25 06:13:58;;;;;;;;;;;20.10;99.90;;;;;;20990430;28;19959;-78
2023/08/25 06:23:59;;;;;;;;;;;20.00;99.90;;;;;;20972470;28;20007;-76
2023/08/25 06:34:02;;;;;;;;;;;20.00;99.90;;;;;;20982363;28;20370;-75
2023/08/25 06:44:03;;;;;;;;;;;20.00;99.90;;;;;;20998941;28;19917;-75
2023/08/25 06:54:04;;;;;;;;;;;20.00;99.90;;;;;;21012258;28;19916;-75
2023/08/25 07:04:04;;;;;;;;;;;20.00;99.90;;;;;;21004956;28;19917;-76
2023/08/25 07:14:05;;;;;;;;;;;20.30;99.90;;;;;;21003109;28;19920;-75
2023/08/25 07:24:06;;;;;;;;;;;20.60;99.90;;;;;;21002930;28;19978;-76
2023/08/25 07:34:06;;;;;;;;;;;20.70;99.90;;;;;;21001681;28;19948;-77
2023/08/25 07:44:08;;;;;;;;;;;20.70;99.90;;;;;;20979714;28;19923;-76
2023/08/25 07:54:09;;;;;;;;;;;20.70;99.90;;;;;;20993221;28;19946;-76
2023/08/25 08:04:10;;;;;;;;;;;21.20;99.90;;;;;;20984392;28;19916;-77
2023/08/25 08:14:10;;;;;;;;;;;21.30;99.90;;;;;;20992466;28;19919;-76
2023/08/25 08:24:11;;;;;;;;;;;21.50;99.90;;;;;;21069556;28;19916;-76
2023/08/25 08:34:11;;;;;;;;;;;21.50;99.90;;;;;;21088818;28;19912;-77
2023/08/25 08:44:14;;;;;;;;;;;21.80;99.90;;;;;;21062187;28;19941;-77
2023/08/25 08:54:15;;;;;;;;;;;22.20;99.90;;;;;;20997446;28;19918;-77
2023/08/25 09:04:18;;;;;;;;;;;22.20;99.90;;;;;;20989479;28;20011;-76
2023/08/25 09:14:26;;;;;;;;;;;22.60;99.90;;;;;;21002921;28;19923;-76
2023/08/25 09:24:28;;;;;;;;;;;22.90;99.90;;;;;;21037580;28;20007;-76
2023/08/25 09:34:29;;;;;;;;;;;23.80;99.90;;;;;;21033414;28;19920;-75
2023/08/25 09:44:32;;;;;;;;;;;25.40;99.90;;;;;;21032252;28;20294;-76
2023/08/25 09:54:33;;;;;;;;;;;25.50;99.90;;;;;;21008167;28;19959;-75
2023/08/25 10:04:34;;;;;;;;;;;25.20;99.90;;;;;;21009772;28;20279;-74
2023/08/25 10:14:41;;;;;;;;;;;25.80;99.90;;;;;;21030860;28;19917;-75
2023/08/25 10:24:42;;;;;;;;;;;26.00;99.90;;;;;;21042683;28;19950;-74
2023/08/25 10:34:44;;;;;;;;;;;25.40;99.90;;;;;;21047141;28;19954;-75
2023/08/25 10:44:45;;;;;;;;;;;26.50;99.90;;;;;;21045508;28;20207;-75
2023/08/25 10:54:46;;;;;;;;;;;25.90;99.90;;;;;;21009332;28;19912;-75
2023/08/25 11:04:47;;;;;;;;;;;25.80;99.90;;;;;;21002883;28;19963;-75
2023/08/25 11:14:48;;;;;;;;;;;25.60;99.90;;;;;;21003555;28;20018;-75
2023/08/25 11:24:49;;;;;;;;;;;26.30;99.90;;;;;;20991027;28;19958;-75
2023/08/25 11:34:49;;;;;;;;;;;26.90;99.90;;;;;;21001372;28;20329;-75
2023/08/25 11:44:52;;;;;;;;;;;26.70;99.90;;;;;;21001439;28;19922;-75
2023/08/25 11:54:53;;;;;;;;;;;26.70;99.90;;;;;;21006979;28;20271;-74
2023/08/25 12:04:54;;;;;;;;;;;26.50;99.90;;;;;;21000439;28;19920;-75
2023/08/25 12:14:55;;;;;;;;;;;26.50;99.90;;;;;;20998548;28;19912;-75
2023/08/25 12:24:55;;;;;;;;;;;26.10;99.90;;;;;;20983164;28;20401;-75
2023/08/25 12:34:56;;;;;;;;;;;25.80;99.90;;;;;;20977461;28;19974;-75
2023/08/25 12:44:57;;;;;;;;;;;26.00;99.90;;;;;;21001695;28;20023;-75
2023/08/25 12:54:57;;;;;;;;;;;26.10;99.90;;;;;;20967004;28;20004;-75
2023/08/25 13:04:58;;;;;;;;;;;26.00;99.90;;;;;;20990445;28;19916;-74
2023/08/25 13:14:59;;;;;;;;;;;26.20;99.90;;;;;;20986469;28;19916;-74
2023/08/25 13:25:00;;;;;;;;;;;26.10;99.90;;;;;;20985115;28;19921;-75
2023/08/25 13:35:01;;;;;;;;;;;26.20;99.90;;;;;;20999941;28;19920;-75
2023/08/25 13:45:03;;;;;;;;;;;26.10;99.90;;;;;;20990771;28;20345;-75
2023/08/25 13:55:04;;;;;;;;;;;25.30;99.90;;;;;;20999124;28;19955;-75
2023/08/25 14:05:05;;;;;;;;;;;25.70;99.90;;;;;;21010867;28;19920;-75
2023/08/25 14:15:06;;;;;;;;;;;26.10;99.90;;;;;;21074010;28;19912;-75
2023/08/25 14:25:07;;;;;;;;;;;25.90;99.90;;;;;;21073368;28;20016;-75
2023/08/25 14:35:08;;;;;;;;;;;25.20;99.90;;;;;;20992693;28;19912;-76
2023/08/25 14:45:08;;;;;;;;;;;24.50;99.90;;;;;;20989200;28;19940;-75
2023/08/25 14:55:09;;;;;;;;;;;24.20;99.90;;;;;;20988866;28;20366;-76
2023/08/25 15:05:10;;;;;;;;;;;23.50;99.90;;;;;;21018182;28;20389;-74
2023/08/25 15:15:11;;;;;;;;;;;24.00;99.90;;;;;;21002426;28;19919;-75
2023/08/25 15:25:12;;;;;;;;;;;25.00;99.90;;;;;;21001509;28;20020;-75
2023/08/25 15:35:12;;;;;;;;;;;24.90;99.90;;;;;;20991731;28;19955;-76
2023/08/25 15:45:13;;;;;;;;;;;24.80;99.90;;;;;;21042453;28;19916;-75
2023/08/25 15:55:13;;;;;;;;;;;24.50;99.90;;;;;;21084230;28;19999;-76
2023/08/25 16:05:14;;;;;;;;;;;24.30;99.90;;;;;;21007129;28;20282;-77
2023/08/25 16:15:15;;;;;;;;;;;23.40;99.90;;;;;;20997509;28;19916;-77
2023/08/25 16:25:16;;;;;;;;;;;23.10;99.90;;;;;;20996886;28;19916;-77
2023/08/25 16:35:16;;;;;;;;;;;23.20;99.90;;;;;;20997188;28;19920;-77
2023/08/25 16:45:17;;;;;;;;;;;23.30;99.90;;;;;;20996567;28;19920;-77
2023/08/25 16:55:17;;;;;;;;;;;23.20;99.90;;;;;;20998915;28;19923;-76
2023/08/25 17:05:18;;;;;;;;;;;22.50;99.90;;;;;;20994938;28;19916;-77
2023/08/25 17:15:20;;;;;;;;;;;22.30;99.90;;;;;;20993706;28;19931;-76
2023/08/25 17:25:20;;;;;;;;;;;22.30;99.90;;;;;;20975459;28;20299;-76
2023/08/25 17:35:21;;;;;;;;;;;22.30;99.90;;;;;;20993104;28;19912;-76
2023/08/25 17:45:21;;;;;;;;;;;22.30;99.90;;;;;;21004102;28;19969;-76
2023/08/25 17:55:22;;;;;;;;;;;22.10;99.90;;;;;;21008356;28;20009;-77
2023/08/25 18:05:23;;;;;;;;;;;22.00;99.90;;;;;;20991074;28;19924;-77
2023/08/25 18:15:23;;;;;;;;;;;21.90;99.90;;;;;;20991920;28;19959;-76
2023/08/25 18:25:24;;;;;;;;;;;21.40;99.90;;;;;;20990025;28;19917;-77
2023/08/25 18:35:24;;;;;;;;;;;21.40;99.90;;;;;;20974914;28;19981;-76
2023/08/25 18:45:25;;;;;;;;;;;20.90;99.90;;;;;;21006172;28;19920;-76
2023/08/25 18:55:26;;;;;;;;;;;21.00;99.90;;;;;;21004916;28;19923;-76
2023/08/25 19:05:26;;;;;;;;;;;20.70;99.90;;;;;;20984337;28;19916;-76
2023/08/25 19:15:27;;;;;;;;;;;20.10;99.90;;;;;;20985441;28;20305;-77
2023/08/25 19:25:29;;;;;;;;;;;20.00;99.90;;;;;;21010234;28;19920;-77
2023/08/25 19:35:33;;;;;;;;;;;19.50;99.90;;;;;;21008288;28;20318;-77
2023/08/25 19:45:33;;;;;;;;;;;19.20;99.90;;;;;;20989662;28;19992;-76
2023/08/25 19:55:41;;;;;;;;;;;19.30;99.90;;;;;;21003967;28;19952;-76
2023/08/25 20:05:57;;;;;;;;;;;19.30;99.90;;;;;;20998937;28;19998;-76
2023/08/25 20:15:58;;;;;;;;;;;19.00;99.90;;;;;;20998053;28;19917;-76
2023/08/25 20:25:59;;;;;;;;;;;19.20;99.90;;;;;;20996686;28;19927;-76
2023/08/25 20:36:00;;;;;;;;;;;19.20;99.90;;;;;;20995956;28;19916;-76
2023/08/25 20:46:11;;;;;;;;;;;19.40;99.90;;;;;;21005824;28;19939;-76
2023/08/25 20:56:12;;;;;;;;;;;19.30;99.90;;;;;;20991083;28;19924;-76
2023/08/25 21:06:13;;;;;;;;;;;19.00;99.90;;;;;;20994302;28;19962;-76
2023/08/25 21:16:13;;;;;;;;;;;19.10;99.90;;;;;;20992290;28;19913;-76
2023/08/25 21:26:14;;;;;;;;;;;19.00;99.90;;;;;;20991355;28;20287;-76
2023/08/25 21:36:15;;;;;;;;;;;19.10;99.90;;;;;;20972613;28;20432;-76
2023/08/25 21:46:15;;;;;;;;;;;19.20;99.90;;;;;;20990235;28;19974;-77
2023/08/25 21:56:16;;;;;;;;;;;19.20;99.90;;;;;;20987728;28;19951;-76
2023/08/25 22:06:17;;;;;;;;;;;19.20;99.90;;;;;;20989480;28;19916;-76
2023/08/25 22:16:18;;;;;;;;;;;19.20;99.90;;;;;;20989260;28;20000;-77
2023/08/25 22:26:18;;;;;;;;;;;19.00;99.90;;;;;;20970839;28;19999;-77
2023/08/25 22:36:19;;;;;;;;;;;19.00;99.90;;;;;;20990323;28;19912;-76
2023/08/25 22:46:19;;;;;;;;;;;19.00;99.90;;;;;;20994891;28;19917;-77
2023/08/25 22:56:20;;;;;;;;;;;19.00;99.90;;;;;;20971735;28;19912;-77
2023/08/25 23:06:21;;;;;;;;;;;19.00;99.90;;;;;;20988989;28;20007;-76
2023/08/25 23:16:21;;;;;;;;;;;19.10;99.90;;;;;;20988877;28;19913;-76
2023/08/25 23:26:22;;;;;;;;;;;19.10;99.90;;;;;;20998836;28;19917;-76
2023/08/25 23:36:23;;;;;;;;;;;19.00;99.90;;;;;;21009731;28;19975;-77
2023/08/25 23:46:23;;;;;;;;;;;19.00;99.90;;;;;;20991851;28;19916;-76
2023/08/25 23:56:24;;;;;;;;;;;18.80;99.90;;;;;;20990991;28;19912;-76
